Time;durP1;ratioP1;P1;durP2;ratioP2;P2;SDS_P1;SDS_P2;PMS_P1;PMS_P2;Temp;Humidity;BMP_temperature;BMP_pressure;BME280_temperature;BME280_humidity;BME280_pressure;Samples;Min_cycle;Max_cycle;Signal;HPM_P1;HPM_P2
2022/03/13 00:00:47;;;;;;;12.27;5.47;;;5.30;78.30;;;;;;6312315;22;20003;-89
2022/03/13 00:03:15;;;;;;;9.18;4.28;;;5.20;78.30;;;;;;6310839;22;20029;-90
2022/03/13 00:05:47;;;;;;;12.10;4.88;;;5.30;78.40;;;;;;6311685;22;20025;-88
2022/03/13 00:08:30;;;;;;;12.20;5.05;;;5.20;77.90;;;;;;6309213;22;20425;-88
2022/03/13 00:11:00;;;;;;;11.67;5.70;;;5.20;78.10;;;;;;6310500;22;19999;-88
2022/03/13 00:13:34;;;;;;;11.27;5.10;;;5.10;78.90;;;;;;6310050;22;20010;-89
2022/03/13 00:16:08;;;;;;;10.83;4.60;;;5.10;78.50;;;;;;6339999;22;19999;-88
2022/03/13 00:18:46;;;;;;;9.70;4.47;;;5.10;78.10;;;;;;6311859;22;20007;-89
2022/03/13 00:21:15;;;;;;;10.43;4.87;;;5.10;79.00;;;;;;6312723;22;20006;-88
2022/03/13 00:23:42;;;;;;;13.10;4.90;;;5.00;79.00;;;;;;6341752;22;20353;-89
2022/03/13 00:26:08;;;;;;;12.03;4.47;;;5.00;79.10;;;;;;6316632;22;19999;-89
2022/03/13 00:28:34;;;;;;;13.03;4.70;;;5.00;79.20;;;;;;6318169;22;20052;-88
2022/03/13 00:31:01;;;;;;;13.73;5.23;;;4.90;78.90;;;;;;6346230;22;20071;-88
2022/03/13 00:33:29;;;;;;;11.00;4.80;;;4.90;79.20;;;;;;6315391;22;20081;-88
2022/03/13 00:36:04;;;;;;;10.00;4.57;;;4.90;79.20;;;;;;6342198;22;20065;-88
2022/03/13 00:38:31;;;;;;;12.32;5.00;;;4.80;79.10;;;;;;6341571;22;19994;-87
2022/03/13 00:41:02;;;;;;;11.00;4.50;;;4.90;79.40;;;;;;6314269;22;20052;-88
2022/03/13 00:43:28;;;;;;;9.60;4.60;;;4.80;79.10;;;;;;6312511;22;19999;-88
2022/03/13 00:45:54;;;;;;;11.40;4.53;;;4.80;78.90;;;;;;6312898;22;20013;-88
2022/03/13 00:48:21;;;;;;;11.47;4.03;;;4.70;78.70;;;;;;6312246;22;20559;-88
2022/03/13 00:50:47;;;;;;;12.47;5.23;;;4.70;78.60;;;;;;6312689;22;20094;-88
2022/03/13 00:53:13;;;;;;;8.93;4.20;;;4.70;77.90;;;;;;6312516;22;20010;-88
2022/03/13 00:55:39;;;;;;;10.20;4.63;;;4.70;76.00;;;;;;6312069;22;20391;-88
2022/03/13 00:58:05;;;;;;;9.37;4.00;;;4.70;76.60;;;;;;6312475;22;20002;-87
2022/03/13 01:00:31;;;;;;;9.50;4.23;;;4.70;77.30;;;;;;6311820;22;20003;-88
2022/03/13 01:02:57;;;;;;;10.80;4.20;;;4.60;77.20;;;;;;6312078;22;19998;-88
2022/03/13 01:05:24;;;;;;;8.63;4.03;;;4.70;76.70;;;;;;6311723;22;20013;-88
2022/03/13 01:07:55;;;;;;;12.07;4.23;;;4.70;76.70;;;;;;6339341;22;19999;-88
2022/03/13 01:10:22;;;;;;;11.23;4.80;;;4.60;76.40;;;;;;6338261;22;19999;-88
2022/03/13 01:12:48;;;;;;;9.67;4.23;;;4.60;76.10;;;;;;6338941;22;19998;-88
2022/03/13 01:15:15;;;;;;;13.07;4.47;;;4.60;76.30;;;;;;6338325;22;20055;-89
2022/03/13 01:17:42;;;;;;;9.97;4.00;;;4.60;76.40;;;;;;6311255;22;20079;-88
2022/03/13 01:20:16;;;;;;;10.07;4.13;;;4.60;76.70;;;;;;6338004;22;20003;-88
2022/03/13 01:22:42;;;;;;;10.07;4.70;;;4.40;76.60;;;;;;6337902;22;20003;-89
2022/03/13 01:25:08;;;;;;;10.93;4.00;;;4.50;76.70;;;;;;6310600;22;20006;-88
2022/03/13 01:27:35;;;;;;;15.07;4.50;;;4.50;76.50;;;;;;6310938;22;20003;-88
2022/03/13 01:30:03;;;;;;;11.53;4.50;;;4.50;76.40;;;;;;6338233;22;19995;-88
2022/03/13 01:32:31;;;;;;;10.23;4.37;;;4.40;75.50;;;;;;6338657;22;20010;-89
2022/03/13 01:34:58;;;;;;;11.67;4.70;;;4.40;75.90;;;;;;6310472;22;20007;-88
2022/03/13 01:37:33;;;;;;;9.27;3.97;;;4.30;76.50;;;;;;6309780;22;19999;-88
2022/03/13 01:40:03;;;;;;;9.87;3.93;;;4.30;76.60;;;;;;6338483;22;20082;-88
2022/03/13 01:42:28;;;;;;;9.20;4.33;;;4.30;75.60;;;;;;6338363;22;20078;-88
2022/03/13 01:44:55;;;;;;;9.30;4.13;;;4.20;75.60;;;;;;6351367;22;20030;-83
2022/03/13 01:47:21;;;;;;;9.93;4.40;;;4.20;76.20;;;;;;6376060;22;19994;-84
2022/03/13 01:49:47;;;;;;;14.63;4.53;;;4.30;76.90;;;;;;6348363;22;20005;-84
2022/03/13 01:52:16;;;;;;;10.77;4.03;;;4.20;77.10;;;;;;6376454;22;20019;-84
2022/03/13 01:54:44;;;;;;;9.60;4.17;;;4.10;77.10;;;;;;6331194;22;20412;-85
2022/03/13 01:57:15;;;;;;;12.43;4.73;;;4.10;77.30;;;;;;6312888;22;20013;-84
2022/03/13 01:59:41;;;;;;;10.10;4.10;;;4.20;77.70;;;;;;6344986;22;19999;-85
2022/03/13 02:02:07;;;;;;;10.10;4.63;;;4.10;77.80;;;;;;6317515;22;20011;-84
2022/03/13 02:04:33;;;;;;;10.27;4.30;;;4.10;77.80;;;;;;6344016;22;20022;-85
2022/03/13 02:06:58;;;;;;;8.87;3.67;;;4.10;77.60;;;;;;6345003;22;20003;-85
2022/03/13 02:09:26;;;;;;;10.90;4.20;;;4.00;77.80;;;;;;6344699;22;19999;-84
2022/03/13 02:11:54;;;;;;;11.83;4.70;;;4.00;78.00;;;;;;6317352;22;20009;-84
2022/03/13 02:14:22;;;;;;;8.67;4.47;;;4.00;78.50;;;;;;6344235;22;20030;-85
2022/03/13 02:16:49;;;;;;;10.80;4.50;;;4.00;78.50;;;;;;6316779;22;20018;-84
2022/03/13 02:19:17;;;;;;;10.67;5.10;;;4.10;78.70;;;;;;6316463;22;20006;-84
2022/03/13 02:21:44;;;;;;;10.10;4.43;;;3.90;78.70;;;;;;6317373;22;20002;-85
2022/03/13 02:24:15;;;;;;;13.50;4.80;;;3.90;78.40;;;;;;6315802;22;20002;-85
2022/03/13 02:26:43;;;;;;;10.50;4.20;;;4.00;78.80;;;;;;6344041;22;19998;-84
2022/03/13 02:29:15;;;;;;;12.43;4.47;;;3.90;78.90;;;;;;6316294;22;20007;-85
2022/03/13 02:31:42;;;;;;;11.30;4.77;;;3.90;78.60;;;;;;6316722;22;20002;-85
2022/03/13 02:34:13;;;;;;;10.27;4.77;;;3.80;78.90;;;;;;6343813;22;20003;-84
2022/03/13 02:36:42;;;;;;;9.93;4.33;;;3.80;79.10;;;;;;6347401;22;20346;-85
2022/03/13 02:39:09;;;;;;;9.20;4.33;;;3.80;79.10;;;;;;6318850;22;20240;-85
2022/03/13 02:41:37;;;;;;;11.57;4.80;;;3.80;79.10;;;;;;6345940;22;20082;-84
2022/03/13 02:44:06;;;;;;;12.67;4.67;;;3.80;79.00;;;;;;6345193;22;20037;-84
2022/03/13 02:46:49;;;;;;;10.57;4.93;;;3.80;79.10;;;;;;6345898;22;20002;-84
2022/03/13 02:49:21;;;;;;;9.50;4.30;;;3.80;79.20;;;;;;6345957;22;20028;-85
2022/03/13 02:51:49;;;;;;;11.63;5.03;;;3.80;79.80;;;;;;6345309;22;19999;-84
2022/03/13 02:54:15;;;;;;;11.93;4.60;;;3.70;79.80;;;;;;6344620;22;20384;-84
2022/03/13 02:56:43;;;;;;;10.87;3.80;;;3.60;79.80;;;;;;6317648;22;20029;-85
2022/03/13 02:59:09;;;;;;;13.90;4.30;;;3.70;80.10;;;;;;6318030;22;20007;-85
2022/03/13 03:01:37;;;;;;;12.60;4.83;;;3.60;79.90;;;;;;6346146;22;20007;-84
2022/03/13 03:04:03;;;;;;;11.63;4.57;;;3.60;80.00;;;;;;6344970;22;20325;-84
2022/03/13 03:06:31;;;;;;;13.10;5.03;;;3.60;80.10;;;;;;6316227;22;20033;-84
2022/03/13 03:09:01;;;;;;;11.53;4.23;;;3.60;80.50;;;;;;6343911;22;19995;-84
2022/03/13 03:11:27;;;;;;;11.60;4.17;;;3.50;80.90;;;;;;6314513;22;20090;-85
2022/03/13 03:13:53;;;;;;;10.27;4.47;;;3.50;80.80;;;;;;6314548;22;19999;-85
2022/03/13 03:16:19;;;;;;;10.83;4.67;;;3.50;80.90;;;;;;6314224;22;20107;-85
2022/03/13 03:18:46;;;;;;;11.37;5.00;;;3.40;80.90;;;;;;6342929;22;20105;-85
2022/03/13 03:21:13;;;;;;;11.13;5.00;;;3.40;81.00;;;;;;6343786;22;20003;-84
2022/03/13 03:23:38;;;;;;;11.03;4.90;;;3.40;81.30;;;;;;6314809;22;20014;-85
2022/03/13 03:26:06;;;;;;;13.33;5.10;;;3.40;81.40;;;;;;6314962;22;19995;-85
2022/03/13 03:28:32;;;;;;;16.20;5.70;;;3.30;81.70;;;;;;6315509;22;20006;-86
2022/03/13 03:30:59;;;;;;;12.30;5.37;;;3.30;81.60;;;;;;6342924;22;19999;-85
2022/03/13 03:33:25;;;;;;;15.20;5.33;;;3.30;81.50;;;;;;6315374;22;20185;-86
2022/03/13 03:35:51;;;;;;;11.37;4.47;;;3.30;81.90;;;;;;6314478;22;20003;-86
2022/03/13 03:38:16;;;;;;;12.47;5.23;;;3.30;82.00;;;;;;6343173;22;20008;-85
2022/03/13 03:40:42;;;;;;;12.03;5.07;;;3.20;82.40;;;;;;6342696;22;20054;-85
2022/03/13 03:43:08;;;;;;;11.87;4.97;;;3.30;82.50;;;;;;6316437;22;20041;-85
2022/03/13 03:45:34;;;;;;;12.50;5.37;;;3.20;82.30;;;;;;6342464;22;20127;-85
2022/03/13 03:48:00;;;;;;;13.13;5.47;;;3.20;82.30;;;;;;6316445;22;20014;-85
2022/03/13 03:50:26;;;;;;;12.47;5.47;;;3.20;82.60;;;;;;6344953;22;20192;-85
2022/03/13 03:52:57;;;;;;;13.97;5.43;;;3.30;83.20;;;;;;6318135;22;20085;-85
2022/03/13 03:55:24;;;;;;;14.15;6.05;;;3.20;83.20;;;;;;6344506;22;20519;-85
2022/03/13 03:57:50;;;;;;;13.47;5.43;;;3.20;83.10;;;;;;6341250;22;20032;-85
2022/03/13 04:00:17;;;;;;;13.33;5.10;;;3.20;83.20;;;;;;6343445;22;20006;-86
2022/03/13 04:02:43;;;;;;;12.30;5.37;;;3.20;83.40;;;;;;6316323;22;20007;-84
2022/03/13 04:05:10;;;;;;;11.17;4.97;;;3.10;83.20;;;;;;6342867;22;20002;-84
2022/03/13 04:07:36;;;;;;;15.83;5.67;;;3.10;83.90;;;;;;6315250;22;20329;-85
2022/03/13 04:10:06;;;;;;;16.53;6.17;;;3.10;83.40;;;;;;6342932;22;19999;-85
2022/03/13 04:12:34;;;;;;;16.73;6.17;;;3.10;83.50;;;;;;6342659;22;19999;-84
2022/03/13 04:15:01;;;;;;;13.80;5.30;;;3.10;83.70;;;;;;6341396;22;20029;-85
2022/03/13 04:17:27;;;;;;;15.70;6.43;;;3.10;84.00;;;;;;6313344;22;20067;-84
2022/03/13 04:19:53;;;;;;;15.97;5.87;;;3.10;84.00;;;;;;6342742;22;20058;-85
2022/03/13 04:22:19;;;;;;;17.13;5.90;;;3.00;83.70;;;;;;6314600;22;20013;-84
2022/03/13 04:24:45;;;;;;;14.80;5.60;;;3.00;84.50;;;;;;6341748;22;20058;-85
2022/03/13 04:27:10;;;;;;;14.97;5.90;;;3.00;83.80;;;;;;6343002;22;19999;-84
2022/03/13 04:29:36;;;;;;;13.90;5.80;;;2.80;83.60;;;;;;6343569;22;20100;-84
2022/03/13 04:32:05;;;;;;;10.97;5.50;;;2.80;84.60;;;;;;6316327;22;19999;-85
2022/03/13 04:34:32;;;;;;;13.80;5.83;;;2.80;84.90;;;;;;6315573;22;20002;-84
2022/03/13 04:37:00;;;;;;;13.77;5.70;;;2.80;85.30;;;;;;6343310;22;20003;-85
2022/03/13 04:39:35;;;;;;;13.83;6.17;;;2.80;85.20;;;;;;6311217;22;20011;-85
2022/03/13 04:42:07;;;;;;;14.80;5.17;;;2.80;85.50;;;;;;6316748;22;20021;-85
2022/03/13 04:44:33;;;;;;;12.40;5.15;;;2.80;85.40;;;;;;6314027;22;20007;-85
2022/03/13 04:46:59;;;;;;;14.03;5.53;;;2.90;85.60;;;;;;6316415;22;20006;-85
2022/03/13 04:49:25;;;;;;;12.97;5.27;;;2.80;85.70;;;;;;6315325;22;20006;-85
2022/03/13 04:51:51;;;;;;;14.40;5.97;;;2.80;85.80;;;;;;6316193;22;19999;-85
2022/03/13 04:54:17;;;;;;;18.57;6.30;;;2.80;85.80;;;;;;6315704;22;20003;-85
2022/03/13 04:56:44;;;;;;;16.87;6.00;;;2.70;85.60;;;;;;6313694;22;20003;-85
2022/03/13 04:59:11;;;;;;;14.63;5.70;;;2.70;85.90;;;;;;6344858;22;20003;-85
2022/03/13 05:01:36;;;;;;;13.30;6.03;;;2.60;86.40;;;;;;6343555;22;20005;-85
2022/03/13 05:04:02;;;;;;;14.63;6.37;;;2.60;86.80;;;;;;6343308;22;20078;-85
2022/03/13 05:06:28;;;;;;;13.60;6.27;;;2.60;86.90;;;;;;6316267;22;20052;-85
2022/03/13 05:08:54;;;;;;;14.40;5.70;;;2.60;86.90;;;;;;6342978;22;19994;-84
2022/03/13 05:11:20;;;;;;;15.00;5.63;;;2.50;86.90;;;;;;6345092;22;20054;-85
2022/03/13 05:13:45;;;;;;;17.53;5.83;;;2.50;87.40;;;;;;6345110;22;19999;-85
2022/03/13 05:16:11;;;;;;;11.97;5.57;;;2.50;87.70;;;;;;6344349;22;20005;-84
2022/03/13 05:18:37;;;;;;;16.00;6.80;;;2.50;87.50;;;;;;6315278;22;19999;-85
2022/03/13 05:21:03;;;;;;;11.33;5.13;;;2.50;87.10;;;;;;6315924;22;20422;-85
2022/03/13 05:23:28;;;;;;;15.50;5.93;;;2.50;88.20;;;;;;6343578;22;20009;-85
2022/03/13 05:25:54;;;;;;;12.73;5.23;;;2.50;88.20;;;;;;6314538;22;20361;-85
2022/03/13 05:28:20;;;;;;;12.87;5.37;;;2.50;88.60;;;;;;6314885;22;20335;-85
2022/03/13 05:30:48;;;;;;;13.63;5.23;;;2.50;88.20;;;;;;6341937;22;20006;-85
2022/03/13 05:33:16;;;;;;;12.73;5.57;;;2.50;88.10;;;;;;6341579;22;19991;-85
2022/03/13 05:35:42;;;;;;;14.60;6.50;;;2.50;88.50;;;;;;6314487;22;20007;-85
2022/03/13 05:38:07;;;;;;;15.23;5.13;;;2.50;88.60;;;;;;6342148;22;20071;-85
2022/03/13 05:40:36;;;;;;;13.50;5.40;;;2.50;89.00;;;;;;6314067;22;20389;-85
2022/03/13 05:43:03;;;;;;;14.47;5.53;;;2.50;88.90;;;;;;6313753;22;20003;-85
2022/03/13 05:45:30;;;;;;;13.90;5.57;;;2.50;89.00;;;;;;6314249;22;20033;-85
2022/03/13 05:48:00;;;;;;;15.17;5.73;;;2.50;89.60;;;;;;6341517;22;19995;-85
2022/03/13 05:50:28;;;;;;;11.13;5.23;;;2.50;90.10;;;;;;6341984;22;19999;-85
2022/03/13 05:52:57;;;;;;;15.10;5.20;;;2.50;90.60;;;;;;6342000;22;20030;-85
2022/03/13 05:55:25;;;;;;;16.23;6.40;;;2.60;90.60;;;;;;6341742;22;20395;-85
2022/03/13 05:57:51;;;;;;;11.77;5.47;;;2.70;90.60;;;;;;6310368;22;20390;-85
2022/03/13 06:00:21;;;;;;;17.17;5.87;;;2.70;90.60;;;;;;6341312;22;20378;-85
2022/03/13 06:02:47;;;;;;;16.33;5.77;;;2.70;90.70;;;;;;6314787;22;20095;-85
2022/03/13 06:05:16;;;;;;;15.80;6.30;;;2.70;90.50;;;;;;6341924;22;20059;-84
2022/03/13 06:07:42;;;;;;;13.00;5.57;;;2.70;90.30;;;;;;6320444;22;20066;-84
2022/03/13 06:10:08;;;;;;;13.60;5.37;;;2.70;90.40;;;;;;6346398;22;19995;-84
2022/03/13 06:12:35;;;;;;;13.00;5.17;;;2.70;90.50;;;;;;6318109;22;20342;-84
2022/03/13 06:15:03;;;;;;;14.03;6.10;;;2.70;90.50;;;;;;6344778;22;20046;-85
2022/03/13 06:17:29;;;;;;;16.70;6.03;;;2.70;90.40;;;;;;6318592;22;20093;-84
2022/03/13 06:19:57;;;;;;;17.13;5.47;;;2.90;90.40;;;;;;6316680;22;20002;-85
2022/03/13 06:22:24;;;;;;;11.90;5.40;;;2.90;90.70;;;;;;6315678;22;20006;-84
2022/03/13 06:24:50;;;;;;;14.43;5.77;;;3.00;90.40;;;;;;6312434;22;20006;-85
2022/03/13 06:27:17;;;;;;;12.60;5.30;;;2.90;90.20;;;;;;6338185;22;19995;-84
2022/03/13 06:29:43;;;;;;;12.87;5.67;;;3.00;90.10;;;;;;6310646;22;20104;-85
2022/03/13 06:32:09;;;;;;;17.83;7.07;;;3.00;90.10;;;;;;6339269;22;20642;-84
2022/03/13 06:34:36;;;;;;;13.87;5.63;;;3.00;89.80;;;;;;6314021;22;20003;-84
2022/03/13 06:37:03;;;;;;;12.90;6.20;;;3.00;89.60;;;;;;6344539;22;19999;-84
2022/03/13 06:39:29;;;;;;;14.50;6.47;;;2.80;89.50;;;;;;6317660;22;20059;-83
2022/03/13 06:41:54;;;;;;;17.10;6.17;;;2.90;89.60;;;;;;6317985;22;20007;-85
2022/03/13 06:44:20;;;;;;;12.77;6.23;;;2.90;90.00;;;;;;6316823;22;20123;-84
2022/03/13 06:46:46;;;;;;;15.30;6.57;;;2.80;90.20;;;;;;6317416;22;20003;-84
2022/03/13 06:49:12;;;;;;;16.03;6.73;;;2.90;90.50;;;;;;6345476;22;20002;-85
2022/03/13 06:51:38;;;;;;;14.37;6.07;;;2.90;90.30;;;;;;6317745;22;19998;-84
2022/03/13 06:54:06;;;;;;;15.07;6.53;;;3.00;90.10;;;;;;6317617;22;20017;-84
2022/03/13 06:56:33;;;;;;;18.17;6.07;;;3.10;90.40;;;;;;6342489;22;19999;-84
2022/03/13 06:59:03;;;;;;;17.37;6.73;;;3.20;90.60;;;;;;6319169;22;20003;-84
2022/03/13 07:01:31;;;;;;;17.83;7.33;;;3.20;90.90;;;;;;6346682;22;20076;-85
2022/03/13 07:03:57;;;;;;;15.03;6.17;;;3.20;91.10;;;;;;6317486;22;20066;-84
2022/03/13 07:06:23;;;;;;;12.60;5.80;;;3.30;91.30;;;;;;6318738;22;20002;-84
2022/03/13 07:08:49;;;;;;;13.30;5.97;;;3.40;91.10;;;;;;6346338;22;20013;-85
2022/03/13 07:11:16;;;;;;;15.87;6.40;;;3.30;90.60;;;;;;6318085;22;20043;-85
2022/03/13 07:13:44;;;;;;;11.53;5.87;;;3.40;90.40;;;;;;6318838;22;19999;-84
2022/03/13 07:16:10;;;;;;;15.33;6.30;;;3.40;89.50;;;;;;6318760;22;20010;-84
2022/03/13 07:18:37;;;;;;;14.43;5.83;;;3.50;89.20;;;;;;6319203;22;20066;-84
2022/03/13 07:21:03;;;;;;;11.63;4.87;;;3.60;89.10;;;;;;6320485;22;20003;-84
2022/03/13 07:23:29;;;;;;;11.47;5.10;;;3.60;87.80;;;;;;6319768;22;20014;-85
2022/03/13 07:25:55;;;;;;;12.40;5.00;;;3.70;87.20;;;;;;6347386;22;19987;-84
2022/03/13 07:28:21;;;;;;;11.13;5.07;;;3.70;86.00;;;;;;6319145;22;19998;-85
2022/03/13 07:30:47;;;;;;;9.93;4.53;;;3.80;86.20;;;;;;6317684;22;20003;-85
2022/03/13 07:33:13;;;;;;;15.40;5.10;;;3.90;85.40;;;;;;6318286;22;20124;-85
2022/03/13 07:35:38;;;;;;;12.23;5.10;;;3.90;84.40;;;;;;6318050;22;20111;-84
2022/03/13 07:38:05;;;;;;;12.03;5.37;;;4.00;84.20;;;;;;6350048;22;20002;-84
2022/03/13 07:40:31;;;;;;;10.93;4.50;;;4.10;84.40;;;;;;6321910;22;20002;-84
2022/03/13 07:42:57;;;;;;;10.43;4.70;;;4.10;84.20;;;;;;6322172;22;20306;-84
2022/03/13 07:45:24;;;;;;;12.37;5.30;;;4.20;84.30;;;;;;6319410;22;20018;-85
2022/03/13 07:47:50;;;;;;;13.43;5.57;;;4.40;84.30;;;;;;6315926;22;20006;-85
2022/03/13 07:50:16;;;;;;;10.43;5.07;;;4.50;84.50;;;;;;6316217;22;19999;-84
2022/03/13 07:52:42;;;;;;;10.97;5.30;;;4.40;84.40;;;;;;6342530;22;20310;-84
2022/03/13 07:55:08;;;;;;;12.53;5.30;;;4.60;84.50;;;;;;6313210;22;20063;-84
2022/03/13 07:57:34;;;;;;;12.13;6.03;;;4.60;84.50;;;;;;6338426;22;20006;-85
2022/03/13 08:00:00;;;;;;;15.03;5.33;;;4.70;84.20;;;;;;6342386;22;20009;-84
2022/03/13 08:02:26;;;;;;;11.13;5.20;;;4.90;83.90;;;;;;6340782;22;20460;-85
2022/03/13 08:04:52;;;;;;;14.37;5.30;;;5.00;83.90;;;;;;6340301;22;20393;-84
2022/03/13 08:07:18;;;;;;;12.83;5.50;;;5.10;83.60;;;;;;6340786;22;20018;-85
2022/03/13 08:09:44;;;;;;;12.90;5.93;;;5.20;83.90;;;;;;6346883;22;19995;-85
2022/03/13 08:12:17;;;;;;;12.30;5.57;;;5.40;84.10;;;;;;6342053;22;19995;-85
2022/03/13 08:14:46;;;;;;;14.43;5.63;;;5.40;83.80;;;;;;6314807;22;20003;-85
2022/03/13 08:17:15;;;;;;;12.20;5.57;;;5.50;85.30;;;;;;6316229;22;20486;-84
2022/03/13 08:19:41;;;;;;;15.23;6.17;;;5.50;84.70;;;;;;6313743;22;20429;-84
2022/03/13 08:22:06;;;;;;;14.57;5.60;;;5.60;85.10;;;;;;6312321;22;20059;-85
2022/03/13 08:24:32;;;;;;;12.93;6.40;;;5.60;85.90;;;;;;6316198;22;20010;-88
2022/03/13 08:27:08;;;;;;;14.90;5.60;;;5.60;85.20;;;;;;6355258;22;20014;-88
2022/03/13 08:29:58;;;;;;;13.30;5.90;;;5.60;85.90;;;;;;6333054;22;20006;-88
2022/03/13 08:32:30;;;;;;;15.13;6.23;;;5.60;86.10;;;;;;6232047;23;20432;-89
2022/03/13 08:34:56;;;;;;;;;;;5.80;85.40;;;;;;6312133;22;20443;-85
2022/03/13 08:37:22;;;;;;;14.40;6.60;;;6.00;84.30;;;;;;6355293;22;20359;-86
2022/03/13 08:39:48;;;;;;;15.63;6.27;;;6.10;83.60;;;;;;6327266;22;20007;-85
2022/03/13 08:42:14;;;;;;;14.77;6.83;;;6.20;84.30;;;;;;6323574;22;20029;-86
2022/03/13 08:44:40;;;;;;;16.17;6.20;;;6.40;83.90;;;;;;6318418;22;20034;-84
2022/03/13 08:47:06;;;;;;;11.77;5.55;;;6.60;83.00;;;;;;6325100;22;20006;-84
2022/03/13 08:49:32;;;;;;;12.77;5.77;;;6.70;83.30;;;;;;6323651;22;20046;-84
2022/03/13 08:51:58;;;;;;;12.40;6.00;;;6.90;83.00;;;;;;6320406;22;20490;-85
2022/03/13 08:54:24;;;;;;;15.17;7.00;;;7.10;82.90;;;;;;6314562;22;20007;-84
2022/03/13 08:56:49;;;;;;;12.38;6.25;;;7.20;82.70;;;;;;6308671;22;20015;-86
2022/03/13 08:59:16;;;;;;;12.90;5.80;;;7.40;82.20;;;;;;6312431;22;19998;-87
2022/03/13 09:01:42;;;;;;;12.75;6.00;;;7.40;81.90;;;;;;6316121;22;20085;-87
2022/03/13 09:04:08;;;;;;;13.35;6.20;;;7.50;81.50;;;;;;6315428;22;20407;-86
2022/03/13 09:06:33;;;;;;;12.68;6.13;;;7.60;81.90;;;;;;6302374;22;20007;-87
2022/03/13 09:08:59;;;;;;;13.93;6.35;;;7.70;82.00;;;;;;6278250;22;20003;-87
2022/03/13 09:11:25;;;;;;;14.98;6.63;;;7.80;81.70;;;;;;6278269;22;20469;-87
2022/03/13 09:13:50;;;;;;;13.95;6.18;;;7.90;81.00;;;;;;6274545;22;20007;-86
2022/03/13 09:16:19;;;;;;;11.85;6.25;;;8.10;80.30;;;;;;6273769;22;20119;-86
2022/03/13 09:18:44;;;;;;;16.58;6.90;;;8.20;80.40;;;;;;6277610;22;20003;-86
2022/03/13 09:21:10;;;;;;;11.90;6.05;;;8.40;78.90;;;;;;6304532;22;20074;-87
2022/03/13 09:23:37;;;;;;;13.05;6.30;;;8.40;78.70;;;;;;6277781;22;19999;-87
2022/03/13 09:26:02;;;;;;;13.73;6.28;;;8.50;78.10;;;;;;6283975;22;20007;-87
2022/03/13 09:28:29;;;;;;;12.70;5.78;;;8.70;79.00;;;;;;6280321;22;20117;-87
2022/03/13 09:30:56;;;;;;;11.88;5.85;;;8.90;77.90;;;;;;6275477;22;20429;-87
2022/03/13 09:33:22;;;;;;;11.90;5.72;;;9.00;77.10;;;;;;6275865;22;20420;-87
2022/03/13 09:35:48;;;;;;;14.20;6.38;;;9.10;77.00;;;;;;6275597;22;20007;-87
2022/03/13 09:38:16;;;;;;;13.27;6.35;;;9.30;78.00;;;;;;6277605;22;20013;-87
2022/03/13 09:40:42;;;;;;;12.98;6.80;;;9.40;77.90;;;;;;6306049;22;20019;-87
2022/03/13 09:43:10;;;;;;;15.68;6.53;;;9.50;78.50;;;;;;6276917;22;20014;-88
2022/03/13 09:45:36;;;;;;;14.07;6.55;;;9.60;77.30;;;;;;6302635;22;20078;-87
2022/03/13 09:48:03;;;;;;;11.00;5.90;;;9.70;77.80;;;;;;6277951;22;20062;-87
2022/03/13 09:50:30;;;;;;;12.70;6.50;;;9.90;77.90;;;;;;6304969;22;19995;-87
2022/03/13 09:52:56;;;;;;;12.27;6.05;;;10.00;77.60;;;;;;6277753;22;19999;-85
2022/03/13 09:55:21;;;;;;;13.23;6.57;;;10.10;76.60;;;;;;6302420;22;20408;-86
2022/03/13 09:57:48;;;;;;;14.02;7.05;;;10.00;76.20;;;;;;6277187;22;20015;-86
2022/03/13 10:00:17;;;;;;;12.45;6.00;;;10.10;76.30;;;;;;6278507;22;20008;-86
2022/03/13 10:02:44;;;;;;;11.20;5.97;;;10.30;76.40;;;;;;6305209;22;20011;-87
2022/03/13 10:05:21;;;;;;;12.80;6.70;;;10.30;75.50;;;;;;6306608;22;19999;-87
2022/03/13 10:08:03;;;;;;;14.45;6.22;;;10.50;75.20;;;;;;6274933;22;19996;-87
2022/03/13 10:10:30;;;;;;;;;;;10.40;74.90;;;;;;6278278;22;20010;-89
2022/03/13 10:13:00;;;;;;;12.82;6.20;;;10.60;74.80;;;;;;6278157;22;19933;-89
2022/03/13 10:15:28;;;;;;;13.98;6.68;;;10.70;74.70;;;;;;6276957;22;20007;-88
2022/03/13 10:17:59;;;;;;;12.90;6.40;;;10.90;74.50;;;;;;6277266;22;20003;-87
2022/03/13 10:20:27;;;;;;;13.00;6.03;;;10.90;73.90;;;;;;6276725;22;20007;-88
2022/03/13 10:23:02;;;;;;;12.52;6.63;;;11.20;73.50;;;;;;6276023;22;20064;-88
2022/03/13 10:25:35;;;;;;;11.38;6.00;;;11.30;72.10;;;;;;6275805;22;20003;-87
2022/03/13 10:28:31;;;;;;;12.85;6.35;;;11.60;71.90;;;;;;6304242;22;20005;-87
2022/03/13 10:30:59;;;;;;;12.50;6.25;;;11.70;71.30;;;;;;6277800;22;20003;-87
2022/03/13 10:33:45;;;;;;;13.23;6.50;;;12.00;70.80;;;;;;6305394;22;19999;-87
2022/03/13 10:36:17;;;;;;;12.88;6.13;;;12.00;69.50;;;;;;6260129;22;20000;-86
2022/03/13 10:38:44;;;;;;;15.20;6.20;;;12.20;69.20;;;;;;6277059;22;20136;-86
2022/03/13 10:41:13;;;;;;;14.60;6.78;;;12.30;70.40;;;;;;6275471;22;20429;-87
2022/03/13 10:43:59;;;;;;;13.93;6.53;;;12.50;69.80;;;;;;6304502;22;19996;-87
2022/03/13 10:46:29;;;;;;;13.45;6.97;;;12.60;68.90;;;;;;6307587;22;20057;-87
2022/03/13 10:48:56;;;;;;;12.23;6.38;;;12.60;68.20;;;;;;6277546;22;20002;-87
2022/03/13 10:51:36;;;;;;;11.60;6.20;;;12.70;67.60;;;;;;6278075;22;20030;-87
2022/03/13 10:54:03;;;;;;;12.52;6.10;;;12.80;68.90;;;;;;6304993;22;19996;-87
2022/03/13 10:56:32;;;;;;;11.27;6.45;;;12.90;68.00;;;;;;6277925;22;20033;-87
2022/03/13 10:58:59;;;;;;;11.90;7.28;;;13.00;67.90;;;;;;6278255;22;20082;-86
2022/03/13 11:01:25;;;;;;;12.48;6.78;;;13.00;66.70;;;;;;6277312;22;20010;-87
2022/03/13 11:03:56;;;;;;;13.05;6.53;;;13.00;68.20;;;;;;6277041;22;20086;-86
2022/03/13 11:06:26;;;;;;;13.20;7.07;;;13.10;66.90;;;;;;6304946;22;19995;-86
2022/03/13 11:08:59;;;;;;;11.57;6.72;;;13.20;67.50;;;;;;6277379;22;20082;-86
2022/03/13 11:11:29;;;;;;;11.63;6.43;;;13.20;67.00;;;;;;6276515;22;20048;-88
2022/03/13 11:13:57;;;;;;;11.85;6.20;;;13.30;67.00;;;;;;6275923;22;20052;-87
2022/03/13 11:16:26;;;;;;;12.43;6.18;;;13.40;69.10;;;;;;6273979;22;20763;-87
2022/03/13 11:18:55;;;;;;;13.57;6.88;;;13.50;65.60;;;;;;6278555;22;19999;-86
2022/03/13 11:21:31;;;;;;;14.32;6.53;;;13.60;66.30;;;;;;6305718;22;20070;-87
2022/03/13 11:24:00;;;;;;;13.63;6.68;;;13.50;65.50;;;;;;6276672;22;20057;-87
2022/03/13 11:26:36;;;;;;;12.73;6.45;;;13.90;67.80;;;;;;6278006;22;20022;-87
2022/03/13 11:29:01;;;;;;;12.38;6.57;;;14.00;64.90;;;;;;6278649;22;20003;-87
2022/03/13 11:31:29;;;;;;;13.52;6.65;;;14.10;64.30;;;;;;6305461;22;20005;-87
2022/03/13 11:34:14;;;;;;;13.45;7.30;;;14.20;64.20;;;;;;6276048;22;20075;-87
2022/03/13 11:36:48;;;;;;;11.45;5.63;;;14.20;63.60;;;;;;6276775;22;20004;-87
2022/03/13 11:39:31;;;;;;;14.50;6.75;;;14.30;65.30;;;;;;6305591;22;20003;-87
2022/03/13 11:41:58;;;;;;;15.40;6.57;;;14.30;62.60;;;;;;6276760;22;20341;-87
2022/03/13 11:44:23;;;;;;;15.90;7.20;;;14.40;63.50;;;;;;6275870;22;20018;-87
2022/03/13 11:47:00;;;;;;;13.25;6.82;;;14.30;63.40;;;;;;6276509;22;20000;-87
2022/03/13 11:49:26;;;;;;;13.57;6.63;;;14.50;63.30;;;;;;6272014;22;20092;-86
2022/03/13 11:52:13;;;;;;;14.55;7.18;;;14.50;62.90;;;;;;6277856;22;20446;-87
2022/03/13 11:54:55;;;;;;;15.13;6.88;;;14.50;62.00;;;;;;6303668;22;20003;-87
2022/03/13 11:57:26;;;;;;;12.85;6.43;;;14.50;62.00;;;;;;6304285;22;20011;-87
2022/03/13 12:00:11;;;;;;;14.43;7.03;;;14.50;62.10;;;;;;6273562;22;20007;-87
2022/03/13 12:02:42;;;;;;;13.13;6.75;;;14.50;62.50;;;;;;6301713;22;20058;-87
2022/03/13 12:05:30;;;;;;;16.02;7.22;;;14.60;61.70;;;;;;6276395;22;20089;-87
2022/03/13 12:08:06;;;;;;;13.23;6.32;;;14.80;63.10;;;;;;6269645;22;20086;-86
2022/03/13 12:10:43;;;;;;;12.20;6.50;;;14.90;62.10;;;;;;6275619;22;19999;-87
2022/03/13 12:13:11;;;;;;;13.18;6.57;;;14.80;60.50;;;;;;6274171;22;20060;-87
2022/03/13 12:15:39;;;;;;;13.38;6.78;;;15.10;60.20;;;;;;6273170;22;20451;-86
2022/03/13 12:18:21;;;;;;;12.90;6.57;;;15.30;61.10;;;;;;6277139;22;20430;-87
2022/03/13 12:20:48;;;;;;;16.73;7.22;;;15.30;60.70;;;;;;6276672;22;20010;-86
2022/03/13 12:23:27;;;;;;;11.23;5.75;;;15.20;58.80;;;;;;6276108;22;20027;-86
2022/03/13 12:26:14;;;;;;;11.90;6.30;;;15.30;59.70;;;;;;6274262;22;20068;-86
2022/03/13 12:28:43;;;;;;;12.30;6.47;;;15.20;59.20;;;;;;6273571;22;20057;-86
2022/03/13 12:31:09;;;;;;;13.02;7.50;;;15.30;59.60;;;;;;6276007;22;20082;-85
2022/03/13 12:33:51;;;;;;;15.65;7.75;;;15.40;59.00;;;;;;6302555;22;19999;-86
2022/03/13 12:36:18;;;;;;;;;;;15.40;59.20;;;;;;6277223;22;20004;-86
2022/03/13 12:38:44;;;;;;;14.10;6.15;;;15.40;58.80;;;;;;6277209;22;20280;-86
2022/03/13 12:41:11;;;;;;;11.38;6.57;;;15.40;59.50;;;;;;6250122;22;20007;-86
2022/03/13 12:43:54;;;;;;;11.10;5.88;;;15.50;60.10;;;;;;6302116;22;20021;-86
2022/03/13 12:46:22;;;;;;;13.65;6.22;;;15.50;59.20;;;;;;6304966;22;20014;-86
2022/03/13 12:48:54;;;;;;;11.70;6.00;;;15.60;59.20;;;;;;6279564;22;20042;-86
2022/03/13 12:51:38;;;;;;;11.90;5.43;;;15.80;58.00;;;;;;6277450;22;20004;-86